Time;durP1;ratioP1;P1;durP2;ratioP2;P2;SDS_P1;SDS_P2;PMS_P1;PMS_P2;Temp;Humidity;BMP_temperature;BMP_pressure;BME280_temperature;BME280_humidity;BME280_pressure;Samples;Min_cycle;Max_cycle;Signal;HPM_P1;HPM_P2
2023/01/25 00:01:11;;;;;;;56.42;30.63;;;;;;;;;;5070871;28;20124;-69
2023/01/25 00:03:37;;;;;;;59.42;30.48;;;;;;;;;;5069689;28;20398;-69
2023/01/25 00:06:03;;;;;;;56.17;29.35;;;;;;;;;;5075013;28;20028;-69
2023/01/25 00:08:29;;;;;;;61.58;33.28;;;;;;;;;;5071485;28;20483;-68
2023/01/25 00:10:55;;;;;;;60.20;31.05;;;;;;;;;;5069307;28;20563;-68
2023/01/25 00:13:21;;;;;;;62.33;31.50;;;;;;;;;;5069624;28;20165;-69
2023/01/25 00:15:47;;;;;;;59.67;31.20;;;;;;;;;;5069187;28;20498;-69
2023/01/25 00:18:13;;;;;;;60.70;31.75;;;;;;;;;;5065164;28;20080;-68
2023/01/25 00:20:39;;;;;;;60.65;31.23;;;;;;;;;;5066442;28;20120;-68
2023/01/25 00:23:05;;;;;;;63.40;32.10;;;;;;;;;;5066269;28;20123;-69
2023/01/25 00:25:31;;;;;;;60.72;32.15;;;;;;;;;;5066388;28;20104;-68
2023/01/25 00:27:57;;;;;;;61.53;31.10;;;;;;;;;;5069209;28;20394;-69
2023/01/25 00:30:23;;;;;;;64.80;32.55;;;;;;;;;;5063616;28;20128;-69
2023/01/25 00:32:56;;;;;;;65.15;32.65;;;;;;;;;;5066822;28;20409;-68
2023/01/25 00:35:22;;;;;;;56.30;30.35;;;;;;;;;;5071357;28;20123;-69
2023/01/25 00:37:48;;;;;;;57.38;31.45;;;;;;;;;;5070696;28;20059;-69
2023/01/25 00:40:15;;;;;;;57.95;30.58;;;;;;;;;;5083249;28;20113;-69
2023/01/25 00:42:41;;;;;;;58.85;30.27;;;;;;;;;;5071340;28;20505;-69
2023/01/25 00:45:07;;;;;;;56.30;29.60;;;;;;;;;;5074756;28;20039;-69
2023/01/25 00:47:33;;;;;;;60.95;31.48;;;;;;;;;;5073268;28;20044;-68
2023/01/25 00:49:59;;;;;;;55.45;29.27;;;;;;;;;;5071627;28;20500;-69
2023/01/25 00:52:27;;;;;;;59.53;30.48;;;;;;;;;;5072998;28;20040;-69
2023/01/25 00:54:53;;;;;;;56.80;30.17;;;;;;;;;;5092808;28;20121;-69
2023/01/25 00:57:19;;;;;;;56.47;29.48;;;;;;;;;;5079925;28;20082;-68
2023/01/25 00:59:46;;;;;;;56.58;30.52;;;;;;;;;;5065563;28;20481;-69
2023/01/25 01:02:12;;;;;;;54.08;29.67;;;;;;;;;;5071921;28;20101;-69
2023/01/25 01:04:38;;;;;;;54.13;29.95;;;;;;;;;;5072443;28;20115;-69
2023/01/25 01:07:04;;;;;;;53.97;29.33;;;;;;;;;;5080004;28;20067;-69
2023/01/25 01:09:30;;;;;;;57.05;28.65;;;;;;;;;;5073665;28;20064;-69
2023/01/25 01:11:56;;;;;;;56.20;30.30;;;;;;;;;;5072995;28;20033;-69
2023/01/25 01:14:23;;;;;;;54.55;28.83;;;;;;;;;;5071880;28;20102;-68
2023/01/25 01:16:49;;;;;;;58.83;30.88;;;;;;;;;;5070183;28;20079;-69
2023/01/25 01:19:15;;;;;;;61.30;30.38;;;;;;;;;;5072583;28;20064;-69
2023/01/25 01:21:41;;;;;;;58.72;30.90;;;;;;;;;;5069571;28;20040;-69
2023/01/25 01:24:08;;;;;;;59.45;30.20;;;;;;;;;;5080065;28;20040;-69
2023/01/25 01:26:34;;;;;;;65.05;32.92;;;;;;;;;;5094055;28;20067;-68
2023/01/25 01:29:00;;;;;;;60.80;31.40;;;;;;;;;;5071469;28;20494;-69
2023/01/25 01:31:26;;;;;;;58.42;29.73;;;;;;;;;;5070712;28;20037;-69
2023/01/25 01:33:53;;;;;;;63.85;32.42;;;;;;;;;;5071353;28;20047;-69
2023/01/25 01:36:20;;;;;;;63.92;31.38;;;;;;;;;;5069601;28;20043;-69
2023/01/25 01:38:46;;;;;;;64.43;32.53;;;;;;;;;;5073673;28;20044;-69
2023/01/25 01:41:13;;;;;;;67.40;32.30;;;;;;;;;;5077106;28;20051;-69
2023/01/25 01:43:39;;;;;;;64.03;32.17;;;;;;;;;;5068931;28;20028;-68
2023/01/25 01:46:12;;;;;;;64.90;31.30;;;;;;;;;;5069010;28;20032;-69
2023/01/25 01:48:44;;;;;;;61.90;32.58;;;;;;;;;;5077898;28;20036;-69
2023/01/25 01:51:10;;;;;;;64.28;33.92;;;;;;;;;;5081567;28;20075;-69
2023/01/25 01:53:37;;;;;;;63.80;32.78;;;;;;;;;;5079476;28;20066;-69
2023/01/25 01:56:04;;;;;;;62.75;32.80;;;;;;;;;;5063284;28;20043;-69
2023/01/25 01:58:31;;;;;;;61.63;31.63;;;;;;;;;;5071538;28;20044;-68
2023/01/25 02:00:57;;;;;;;56.70;30.25;;;;;;;;;;5064795;28;20040;-69
2023/01/25 02:03:24;;;;;;;56.92;30.63;;;;;;;;;;5077483;28;20055;-69
2023/01/25 02:05:57;;;;;;;56.15;30.77;;;;;;;;;;5066351;28;20040;-68
2023/01/25 02:08:24;;;;;;;58.50;31.15;;;;;;;;;;5070518;28;20414;-69
2023/01/25 02:10:50;;;;;;;56.55;29.42;;;;;;;;;;5078537;28;20628;-69
2023/01/25 02:13:19;;;;;;;60.22;31.08;;;;;;;;;;5072140;28;20039;-69
2023/01/25 02:15:47;;;;;;;54.95;30.00;;;;;;;;;;5059315;28;20037;-69
2023/01/25 02:18:14;;;;;;;56.47;29.15;;;;;;;;;;5074758;28;20043;-69
2023/01/25 02:20:47;;;;;;;55.65;29.27;;;;;;;;;;5079620;28;20418;-69
2023/01/25 02:23:31;;;;;;;55.33;28.55;;;;;;;;;;5077339;28;20032;-69
2023/01/25 02:26:00;;;;;;;55.85;29.50;;;;;;;;;;5078328;28;20463;-69
2023/01/25 02:28:35;;;;;;;54.35;29.23;;;;;;;;;;5071619;28;20037;-69
2023/01/25 02:31:01;;;;;;;57.00;29.45;;;;;;;;;;5066118;28;20528;-68
2023/01/25 02:33:28;;;;;;;52.75;28.50;;;;;;;;;;5078768;28;20079;-69
2023/01/25 02:36:14;;;;;;;56.63;28.98;;;;;;;;;;5072095;28;20053;-68
2023/01/25 02:38:50;;;;;;;54.75;29.45;;;;;;;;;;5077275;28;20047;-68
2023/01/25 02:41:18;;;;;;;55.15;29.50;;;;;;;;;;5077318;28;20119;-68
2023/01/25 02:43:44;;;;;;;57.33;29.83;;;;;;;;;;5068181;28;20949;-69
2023/01/25 02:46:15;;;;;;;50.63;25.63;;;;;;;;;;5068083;28;20120;-69
2023/01/25 02:48:41;;;;;;;55.03;28.38;;;;;;;;;;5075930;28;20040;-68
2023/01/25 02:51:08;;;;;;;53.53;27.50;;;;;;;;;;5066019;28;20039;-68
2023/01/25 02:53:34;;;;;;;55.30;28.33;;;;;;;;;;5079766;28;20047;-68
2023/01/25 02:56:00;;;;;;;50.05;27.02;;;;;;;;;;5078509;28;20117;-68
2023/01/25 02:58:26;;;;;;;54.28;28.17;;;;;;;;;;5069848;28;20102;-69
2023/01/25 03:00:53;;;;;;;51.88;27.67;;;;;;;;;;5066347;28;20043;-69
2023/01/25 03:03:19;;;;;;;49.35;26.67;;;;;;;;;;5085249;28;20031;-69
2023/01/25 03:05:45;;;;;;;58.63;28.52;;;;;;;;;;5069290;28;20044;-68
2023/01/25 03:08:11;;;;;;;56.83;29.13;;;;;;;;;;5072290;28;20051;-69
2023/01/25 03:10:37;;;;;;;60.67;29.27;;;;;;;;;;5086389;22;20036;-61
2023/01/25 03:13:03;;;;;;;59.45;29.02;;;;;;;;;;5070317;28;20402;-63
2023/01/25 03:15:29;;;;;;;60.10;29.17;;;;;;;;;;5066864;28;20045;-62
2023/01/25 03:17:56;;;;;;;61.22;30.63;;;;;;;;;;5070393;28;20388;-63
2023/01/25 03:20:22;;;;;;;60.35;31.15;;;;;;;;;;5070405;28;20067;-63
2023/01/25 03:22:48;;;;;;;60.88;29.50;;;;;;;;;;5071085;28;20040;-63
2023/01/25 03:25:14;;;;;;;59.38;30.20;;;;;;;;;;5070495;28;20067;-63
2023/01/25 03:27:40;;;;;;;61.58;29.35;;;;;;;;;;5065019;28;20123;-62
2023/01/25 03:30:07;;;;;;;62.72;30.60;;;;;;;;;;5069218;28;20047;-63
2023/01/25 03:32:33;;;;;;;60.83;29.75;;;;;;;;;;5068536;28;20040;-63
2023/01/25 03:34:59;;;;;;;57.50;30.35;;;;;;;;;;5064844;28;20387;-62
2023/01/25 03:37:30;;;;;;;60.17;30.73;;;;;;;;;;5046831;28;20041;-63
2023/01/25 03:39:56;;;;;;;58.08;29.98;;;;;;;;;;5043672;28;20045;-62
2023/01/25 03:42:22;;;;;;;58.65;28.88;;;;;;;;;;5056246;28;20470;-63
2023/01/25 03:44:48;;;;;;;61.80;30.38;;;;;;;;;;5068047;28;20036;-63
2023/01/25 03:47:15;;;;;;;58.08;29.95;;;;;;;;;;5070488;28;20039;-63
2023/01/25 03:49:41;;;;;;;55.50;29.48;;;;;;;;;;5069159;28;20121;-63
2023/01/25 03:52:07;;;;;;;57.78;29.70;;;;;;;;;;5068498;28;20089;-63
2023/01/25 03:54:33;;;;;;;51.47;27.92;;;;;;;;;;5071100;28;20082;-63
2023/01/25 03:56:59;;;;;;;54.05;28.52;;;;;;;;;;5070807;28;20037;-63
2023/01/25 03:59:25;;;;;;;55.28;28.17;;;;;;;;;;5068586;28;20029;-63
2023/01/25 04:01:51;;;;;;;56.20;28.73;;;;;;;;;;5068551;28;20049;-63
2023/01/25 04:04:17;;;;;;;50.42;26.60;;;;;;;;;;5067608;28;20040;-63
2023/01/25 04:06:43;;;;;;;50.70;25.48;;;;;;;;;;5069564;28;20478;-62
2023/01/25 04:09:10;;;;;;;51.67;26.88;;;;;;;;;;5072295;28;20037;-63
2023/01/25 04:11:36;;;;;;;52.88;27.95;;;;;;;;;;5068048;28;20169;-62
2023/01/25 04:14:02;;;;;;;51.45;26.73;;;;;;;;;;5053406;28;20045;-63
2023/01/25 04:16:30;;;;;;;50.22;25.50;;;;;;;;;;5064167;28;20033;-62
2023/01/25 04:18:56;;;;;;;51.33;27.00;;;;;;;;;;5071763;28;20049;-63
2023/01/25 04:21:22;;;;;;;52.00;26.52;;;;;;;;;;5074836;28;20032;-63
2023/01/25 04:23:48;;;;;;;50.08;25.35;;;;;;;;;;5072197;28;20052;-63
2023/01/25 04:26:14;;;;;;;47.33;24.85;;;;;;;;;;5067024;28;20033;-63
2023/01/25 04:28:40;;;;;;;46.80;24.50;;;;;;;;;;5072915;28;20041;-62
2023/01/25 04:31:06;;;;;;;45.15;23.80;;;;;;;;;;5069092;28;20056;-63
2023/01/25 04:33:33;;;;;;;48.47;25.58;;;;;;;;;;5065071;28;20040;-63
2023/01/25 04:35:59;;;;;;;47.65;25.35;;;;;;;;;;5054744;28;20048;-63
2023/01/25 04:38:25;;;;;;;46.65;24.88;;;;;;;;;;5070085;28;20051;-63
2023/01/25 04:40:51;;;;;;;44.40;24.80;;;;;;;;;;5070767;28;20048;-63
2023/01/25 04:43:18;;;;;;;45.55;24.35;;;;;;;;;;5074172;28;20039;-63
2023/01/25 04:45:44;;;;;;;48.83;25.85;;;;;;;;;;5072420;28;20040;-63
2023/01/25 04:48:11;;;;;;;47.10;25.02;;;;;;;;;;5069308;28;20039;-63
2023/01/25 04:50:38;;;;;;;45.22;24.35;;;;;;;;;;5070777;28;20044;-62
2023/01/25 04:53:05;;;;;;;46.83;25.58;;;;;;;;;;5074354;28;20048;-63
2023/01/25 04:55:31;;;;;;;48.47;26.20;;;;;;;;;;5068980;28;20115;-63
2023/01/25 04:57:57;;;;;;;46.85;24.98;;;;;;;;;;5072913;28;20088;-62
2023/01/25 05:00:23;;;;;;;47.35;25.38;;;;;;;;;;5071678;28;20068;-63
2023/01/25 05:02:49;;;;;;;47.65;24.90;;;;;;;;;;5070591;28;20040;-63
2023/01/25 05:05:15;;;;;;;47.20;24.80;;;;;;;;;;5073209;28;20039;-62
2023/01/25 05:07:41;;;;;;;44.85;23.23;;;;;;;;;;5073328;28;20032;-63
2023/01/25 05:10:08;;;;;;;45.50;23.42;;;;;;;;;;5067955;28;20044;-63
2023/01/25 05:12:34;;;;;;;43.13;23.25;;;;;;;;;;5067751;28;20775;-63
2023/01/25 05:15:00;;;;;;;47.03;23.60;;;;;;;;;;5064627;28;20044;-62
2023/01/25 05:17:26;;;;;;;46.25;24.35;;;;;;;;;;5069505;28;20036;-63
2023/01/25 05:19:52;;;;;;;46.25;23.85;;;;;;;;;;5066989;28;20835;-63
2023/01/25 05:22:19;;;;;;;49.30;25.35;;;;;;;;;;5067860;28;20064;-63
2023/01/25 05:24:46;;;;;;;46.63;24.08;;;;;;;;;;5067337;28;20477;-63
2023/01/25 05:27:13;;;;;;;48.22;25.30;;;;;;;;;;5065444;28;20097;-63
2023/01/25 05:29:40;;;;;;;44.83;23.90;;;;;;;;;;5062941;28;20521;-63
2023/01/25 05:32:07;;;;;;;45.95;24.35;;;;;;;;;;5065913;28;20071;-62
2023/01/25 05:34:34;;;;;;;49.17;24.77;;;;;;;;;;5067582;28;20032;-63
2023/01/25 05:37:00;;;;;;;48.22;24.85;;;;;;;;;;5050100;28;20383;-63
2023/01/25 05:39:27;;;;;;;49.78;25.00;;;;;;;;;;5048611;28;20037;-62
2023/01/25 05:41:53;;;;;;;48.70;24.77;;;;;;;;;;5067412;28;20036;-63
2023/01/25 05:44:19;;;;;;;52.65;25.88;;;;;;;;;;5066324;28;20042;-63
2023/01/25 05:46:45;;;;;;;49.47;25.30;;;;;;;;;;5063622;28;20925;-62
2023/01/25 05:49:11;;;;;;;47.78;24.85;;;;;;;;;;5060321;28;20105;-63
2023/01/25 05:51:37;;;;;;;47.13;24.83;;;;;;;;;;5051875;28;20115;-63
2023/01/25 05:54:04;;;;;;;51.60;25.70;;;;;;;;;;5065852;28;20056;-63
2023/01/25 05:56:30;;;;;;;46.15;24.15;;;;;;;;;;5066921;28;20041;-62
2023/01/25 05:58:57;;;;;;;51.28;24.60;;;;;;;;;;5069438;28;20522;-63
2023/01/25 06:01:24;;;;;;;48.63;25.73;;;;;;;;;;5072866;28;20041;-63
2023/01/25 06:03:50;;;;;;;50.13;25.98;;;;;;;;;;5052789;28;20131;-62
2023/01/25 06:06:16;;;;;;;50.53;25.08;;;;;;;;;;5071184;28;20032;-63
2023/01/25 06:08:42;;;;;;;47.88;26.58;;;;;;;;;;5061554;28;20405;-63
2023/01/25 06:11:09;;;;;;;47.55;25.08;;;;;;;;;;5063047;28;20036;-63
2023/01/25 06:13:35;;;;;;;49.85;25.92;;;;;;;;;;5064575;28;20498;-62
2023/01/25 06:16:01;;;;;;;50.67;25.42;;;;;;;;;;5067776;28;20143;-62
2023/01/25 06:18:29;;;;;;;47.85;24.85;;;;;;;;;;5069916;28;20613;-62
2023/01/25 06:20:58;;;;;;;48.13;23.48;;;;;;;;;;5068870;28;20040;-63
2023/01/25 06:23:24;;;;;;;47.28;24.40;;;;;;;;;;5048346;28;20668;-63
2023/01/25 06:25:50;;;;;;;47.00;24.98;;;;;;;;;;5071238;28;20455;-63
2023/01/25 06:28:16;;;;;;;49.80;25.80;;;;;;;;;;5072212;28;20379;-63
2023/01/25 06:30:42;;;;;;;49.17;24.85;;;;;;;;;;5072060;28;20040;-63
2023/01/25 06:33:08;;;;;;;46.38;25.10;;;;;;;;;;5071901;28;20032;-63
2023/01/25 06:35:34;;;;;;;47.83;24.25;;;;;;;;;;5068830;28;20044;-63
2023/01/25 06:38:00;;;;;;;48.42;24.73;;;;;;;;;;5070489;28;20060;-63
2023/01/25 06:40:27;;;;;;;46.92;23.98;;;;;;;;;;5070988;28;20101;-63
2023/01/25 06:42:53;;;;;;;46.55;24.33;;;;;;;;;;5072713;28;20055;-63
2023/01/25 06:45:20;;;;;;;48.58;25.00;;;;;;;;;;5071033;28;20406;-62
2023/01/25 06:47:48;;;;;;;48.90;24.60;;;;;;;;;;5071856;28;20051;-63
2023/01/25 06:50:14;;;;;;;45.67;23.92;;;;;;;;;;5068613;28;20198;-63
2023/01/25 06:52:40;;;;;;;44.65;24.02;;;;;;;;;;5070661;28;20612;-63
2023/01/25 06:55:08;;;;;;;43.67;22.52;;;;;;;;;;5070731;28;20119;-63
2023/01/25 06:57:35;;;;;;;42.78;22.88;;;;;;;;;;5063363;28;20049;-62
2023/01/25 07:00:01;;;;;;;45.78;24.15;;;;;;;;;;5071606;28;20572;-63
2023/01/25 07:02:27;;;;;;;42.72;23.75;;;;;;;;;;5070674;28;20032;-63
2023/01/25 07:04:53;;;;;;;42.97;21.42;;;;;;;;;;5063357;28;20032;-62
2023/01/25 07:07:18;;;;;;;46.60;23.27;;;;;;;;;;5068998;28;20399;-63
2023/01/25 07:09:44;;;;;;;42.65;22.27;;;;;;;;;;5071542;28;20131;-63
2023/01/25 07:12:10;;;;;;;42.65;22.42;;;;;;;;;;5068276;28;20028;-63
2023/01/25 07:14:36;;;;;;;38.58;21.48;;;;;;;;;;5071728;28;20040;-62
2023/01/25 07:17:02;;;;;;;43.55;22.95;;;;;;;;;;5063759;28;20040;-63
2023/01/25 07:19:28;;;;;;;44.88;23.00;;;;;;;;;;5069078;28;20029;-62
2023/01/25 07:21:54;;;;;;;42.85;23.23;;;;;;;;;;5051714;28;20417;-63
2023/01/25 07:24:25;;;;;;;40.03;22.55;;;;;;;;;;5066622;28;20112;-63
2023/01/25 07:26:51;;;;;;;41.20;21.73;;;;;;;;;;5065106;28;20036;-63
2023/01/25 07:29:17;;;;;;;42.67;21.83;;;;;;;;;;5065547;28;20147;-62
2023/01/25 07:31:43;;;;;;;41.60;21.40;;;;;;;;;;5064314;28;20036;-63
2023/01/25 07:34:11;;;;;;;42.67;22.63;;;;;;;;;;5069981;28;20037;-62
2023/01/25 07:36:38;;;;;;;44.72;22.20;;;;;;;;;;5053850;28;20057;-63
2023/01/25 07:39:04;;;;;;;42.22;22.10;;;;;;;;;;5066946;28;20089;-62
2023/01/25 07:41:31;;;;;;;40.67;22.08;;;;;;;;;;5066923;28;20399;-63
2023/01/25 07:43:57;;;;;;;42.75;22.88;;;;;;;;;;5068721;28;20527;-63
2023/01/25 07:46:24;;;;;;;42.95;22.27;;;;;;;;;;5065840;28;20043;-62
2023/01/25 07:48:51;;;;;;;42.53;21.48;;;;;;;;;;5066881;28;20511;-63
2023/01/25 07:51:21;;;;;;;44.28;23.08;;;;;;;;;;5070300;28;20047;-63
2023/01/25 07:53:48;;;;;;;41.35;21.60;;;;;;;;;;5070720;28;20072;-63
2023/01/25 07:56:14;;;;;;;47.20;24.02;;;;;;;;;;5071079;28;20382;-62
2023/01/25 07:58:41;;;;;;;43.72;22.80;;;;;;;;;;5068205;28;20052;-63
2023/01/25 08:01:11;;;;;;;49.08;24.23;;;;;;;;;;5068996;28;20051;-63
2023/01/25 08:03:37;;;;;;;48.38;24.13;;;;;;;;;;5067149;28;20095;-63
2023/01/25 08:06:04;;;;;;;50.00;24.88;;;;;;;;;;5063188;28;20128;-63
2023/01/25 08:08:32;;;;;;;51.38;25.20;;;;;;;;;;5068746;28;20048;-62
2023/01/25 08:10:59;;;;;;;45.15;23.50;;;;;;;;;;5069042;28;20040;-63
2023/01/25 08:13:25;;;;;;;48.22;24.52;;;;;;;;;;5061978;28;20037;-63
2023/01/25 08:15:55;;;;;;;50.13;24.42;;;;;;;;;;5066699;28;20536;-63
2023/01/25 08:18:21;;;;;;;51.67;25.55;;;;;;;;;;5064798;28;20406;-63
2023/01/25 08:20:47;;;;;;;51.30;25.70;;;;;;;;;;5067372;28;20037;-63
2023/01/25 08:23:14;;;;;;;50.70;25.25;;;;;;;;;;5069335;28;20425;-63
2023/01/25 08:25:40;;;;;;;48.00;25.40;;;;;;;;;;5069262;28;20041;-63
2023/01/25 08:28:06;;;;;;;44.40;22.75;;;;;;;;;;5068697;28;20470;-62
2023/01/25 08:30:32;;;;;;;45.40;22.85;;;;;;;;;;5067581;28;20044;-62
2023/01/25 08:32:58;;;;;;;45.42;21.85;;;;;;;;;;5064763;28;20123;-63
2023/01/25 08:35:24;;;;;;;48.03;23.55;;;;;;;;;;5047808;28;20064;-63
2023/01/25 08:37:50;;;;;;;49.05;23.65;;;;;;;;;;5066736;28;20438;-63
2023/01/25 08:40:17;;;;;;;45.63;23.50;;;;;;;;;;5068603;28;20116;-63
2023/01/25 08:42:43;;;;;;;48.70;23.65;;;;;;;;;;5063040;28;20119;-63
2023/01/25 08:45:09;;;;;;;47.42;24.10;;;;;;;;;;5067350;28;20033;-63
2023/01/25 08:47:35;;;;;;;48.70;24.77;;;;;;;;;;5065298;28;20040;-63
2023/01/25 08:50:01;;;;;;;50.85;24.48;;;;;;;;;;5066742;28;20452;-63
2023/01/25 08:52:27;;;;;;;48.00;23.08;;;;;;;;;;5067409;28;20044;-63
2023/01/25 08:54:53;;;;;;;46.88;23.60;;;;;;;;;;5060369;28;20051;-63
2023/01/25 08:57:19;;;;;;;49.15;24.30;;;;;;;;;;5062118;28;20494;-62
2023/01/25 08:59:46;;;;;;;44.75;21.83;;;;;;;;;;5071645;28;20105;-63
2023/01/25 09:02:12;;;;;;;46.20;23.55;;;;;;;;;;5069746;28;20048;-63
2023/01/25 09:04:38;;;;;;;48.78;22.67;;;;;;;;;;5068803;28;20040;-63
2023/01/25 09:07:05;;;;;;;43.50;21.40;;;;;;;;;;5048035;28;20040;-62
2023/01/25 09:09:31;;;;;;;46.38;21.58;;;;;;;;;;5069291;28;20090;-63
2023/01/25 09:11:57;;;;;;;45.30;23.02;;;;;;;;;;5081106;22;20044;-64
2023/01/25 09:14:23;;;;;;;46.15;23.52;;;;;;;;;;5067196;28;20394;-63
2023/01/25 09:16:49;;;;;;;45.72;22.50;;;;;;;;;;5068469;28;20045;-62
2023/01/25 09:19:15;;;;;;;43.92;22.15;;;;;;;;;;5069242;28;20047;-63
2023/01/25 09:21:41;;;;;;;47.60;23.08;;;;;;;;;;5069299;28;20036;-62
2023/01/25 09:24:07;;;;;;;46.72;23.08;;;;;;;;;;5066133;28;20040;-63
2023/01/25 09:26:35;;;;;;;51.65;23.55;;;;;;;;;;5064324;28;20116;-64
2023/01/25 09:29:01;;;;;;;45.13;23.23;;;;;;;;;;5067348;28;20052;-65
2023/01/25 09:31:28;;;;;;;52.03;24.67;;;;;;;;;;5069948;28;20120;-65
2023/01/25 09:33:56;;;;;;;50.28;23.70;;;;;;;;;;5065191;28;20052;-64
2023/01/25 09:36:22;;;;;;;50.72;23.85;;;;;;;;;;5065489;28;20058;-64
2023/01/25 09:38:48;;;;;;;50.97;24.92;;;;;;;;;;5061121;28;20059;-64
2023/01/25 09:41:14;;;;;;;48.75;23.35;;;;;;;;;;5060482;28;20037;-65
2023/01/25 09:44:12;;;;;;;45.75;23.42;;;;;;;;;;5064716;28;20413;-64
2023/01/25 09:46:43;;;;;;;44.58;21.83;;;;;;;;;;5014818;28;20131;-65
2023/01/25 09:49:21;;;;;;;49.50;23.00;;;;;;;;;;5065451;28;20044;-64
2023/01/25 09:51:53;;;;;;;50.40;23.30;;;;;;;;;;5066001;28;20067;-65
2023/01/25 09:54:19;;;;;;;49.40;23.40;;;;;;;;;;5064143;28;20043;-66
2023/01/25 09:56:48;;;;;;;45.60;22.85;;;;;;;;;;5062455;28;20075;-65
2023/01/25 09:59:19;;;;;;;46.53;22.17;;;;;;;;;;5066824;28;20036;-65
2023/01/25 10:01:56;;;;;;;47.15;21.98;;;;;;;;;;5064774;28;20048;-65
2023/01/25 10:04:25;;;;;;;45.30;21.90;;;;;;;;;;5063011;28;20040;-64
2023/01/25 10:07:00;;;;;;;51.42;22.15;;;;;;;;;;5067111;28;20044;-64
2023/01/25 10:09:45;;;;;;;44.80;21.33;;;;;;;;;;5067806;28;20082;-65
2023/01/25 10:12:22;;;;;;;45.67;22.83;;;;;;;;;;5059161;28;20122;-64
2023/01/25 10:14:48;;;;;;;49.78;23.67;;;;;;;;;;5067235;28;20102;-65
2023/01/25 10:17:20;;;;;;;44.90;20.73;;;;;;;;;;5069505;28;20029;-65
2023/01/25 10:20:01;;;;;;;51.45;23.52;;;;;;;;;;5064214;28;20024;-66
2023/01/25 10:22:30;;;;;;;48.90;23.42;;;;;;;;;;5067042;28;20044;-65
2023/01/25 10:25:02;;;;;;;45.95;23.02;;;;;;;;;;5068076;28;20592;-64
2023/01/25 10:27:34;;;;;;;44.95;21.60;;;;;;;;;;5067399;28;20048;-64
2023/01/25 10:30:02;;;;;;;43.75;22.05;;;;;;;;;;5065755;28;20040;-65
2023/01/25 10:32:33;;;;;;;48.53;21.92;;;;;;;;;;5065523;28;20341;-64
2023/01/25 10:35:12;;;;;;;47.53;23.75;;;;;;;;;;5067196;28;20089;-64
2023/01/25 10:37:38;;;;;;;47.17;22.23;;;;;;;;;;5058694;28;20040;-64
2023/01/25 10:40:13;;;;;;;45.67;21.33;;;;;;;;;;5068180;28;20033;-63
2023/01/25 10:42:43;;;;;;;43.65;21.90;;;;;;;;;;5066495;28;20025;-64
2023/01/25 10:45:13;;;;;;;46.05;21.60;;;;;;;;;;5060193;28;20039;-65
2023/01/25 10:47:41;;;;;;;44.47;22.08;;;;;;;;;;5062764;28;20123;-65
2023/01/25 10:50:08;;;;;;;44.42;21.17;;;;;;;;;;5060451;28;20089;-64
2023/01/25 10:52:36;;;;;;;46.45;21.75;;;;;;;;;;5067899;28;20032;-64
2023/01/25 10:55:16;;;;;;;48.35;23.52;;;;;;;;;;5062796;28;20037;-64
2023/01/25 10:57:49;;;;;;;45.45;22.30;;;;;;;;;;5063677;28;20127;-65
2023/01/25 11:00:34;;;;;;;43.70;21.67;;;;;;;;;;5068173;28;20123;-64
2023/01/25 11:03:00;;;;;;;43.90;21.42;;;;;;;;;;5068263;28;20056;-65
2023/01/25 11:05:29;;;;;;;43.78;21.42;;;;;;;;;;5068278;28;20415;-65
2023/01/25 11:07:55;;;;;;;44.45;21.98;;;;;;;;;;5066144;28;21028;-63
2023/01/25 11:10:33;;;;;;;45.30;21.77;;;;;;;;;;5068530;28;20064;-64
2023/01/25 11:13:15;;;;;;;42.35;21.50;;;;;;;;;;5066674;28;20118;-64
2023/01/25 11:15:43;;;;;;;;;;;;;;;;;;5067126;28;20739;-64
2023/01/25 11:18:24;;;;;;;44.33;21.98;;;;;;;;;;5067156;28;19920;-65
2023/01/25 11:21:03;;;;;;;39.17;20.25;;;;;;;;;;5062893;28;20183;-64
2023/01/25 11:23:31;;;;;;;43.97;21.90;;;;;;;;;;5064144;28;20041;-64
2023/01/25 11:26:10;;;;;;;45.45;21.67;;;;;;;;;;5065173;28;20040;-65
2023/01/25 11:28:36;;;;;;;40.38;19.95;;;;;;;;;;5064467;28;20033;-65
2023/01/25 11:31:02;;;;;;;45.33;21.35;;;;;;;;;;5064977;28;20028;-64
2023/01/25 11:33:29;;;;;;;44.47;21.70;;;;;;;;;;5065179;28;20044;-65
2023/01/25 11:36:04;;;;;;;44.33;21.10;;;;;;;;;;5069860;28;20047;-65
2023/01/25 11:38:30;;;;;;;42.28;20.27;;;;;;;;;;5067736;28;20376;-64
2023/01/25 11:41:11;;;;;;;42.17;21.10;;;;;;;;;;5062894;28;20047;-64
2023/01/25 11:43:40;;;;;;;41.47;19.88;;;;;;;;;;5057532;28;21041;-65
2023/01/25 11:46:09;;;;;;;45.30;21.92;;;;;;;;;;5048620;28;20097;-65
2023/01/25 11:48:47;;;;;;;44.28;20.50;;;;;;;;;;5067141;28;20081;-66
2023/01/25 11:51:23;;;;;;;45.53;21.38;;;;;;;;;;5056569;28;20048;-65
2023/01/25 11:53:52;;;;;;;50.00;22.15;;;;;;;;;;5068897;28;20443;-66
2023/01/25 11:56:31;;;;;;;44.65;22.45;;;;;;;;;;5065116;28;20045;-66
2023/01/25 11:59:05;;;;;;;45.13;21.30;;;;;;;;;;5063192;28;20063;-65
2023/01/25 12:01:35;;;;;;;41.83;21.10;;;;;;;;;;5065189;28;20537;-65
2023/01/25 12:04:05;;;;;;;47.30;21.42;;;;;;;;;;5067251;28;20090;-65
2023/01/25 12:06:37;;;;;;;45.00;21.05;;;;;;;;;;5058319;28;20036;-65
2023/01/25 12:09:09;;;;;;;42.22;20.20;;;;;;;;;;5061514;28;20056;-65
2023/01/25 12:11:38;;;;;;;39.63;19.50;;;;;;;;;;5065351;28;20140;-65
2023/01/25 12:14:24;;;;;;;45.35;20.77;;;;;;;;;;5062296;28;20040;-66
2023/01/25 12:16:50;;;;;;;44.33;19.90;;;;;;;;;;5056575;28;20076;-66
2023/01/25 12:19:35;;;;;;;43.50;20.77;;;;;;;;;;5066468;28;20075;-66
2023/01/25 12:22:10;;;;;;;42.10;19.05;;;;;;;;;;5065837;28;20453;-65
2023/01/25 12:24:36;;;;;;;43.13;20.25;;;;;;;;;;5064936;28;20539;-65
2023/01/25 12:27:21;;;;;;;45.65;21.50;;;;;;;;;;5067114;28;20068;-65
2023/01/25 12:29:47;;;;;;;39.55;19.25;;;;;;;;;;5067817;28;20048;-65
2023/01/25 12:32:13;;;;;;;41.72;19.17;;;;;;;;;;5065665;28;20045;-66
2023/01/25 12:34:41;;;;;;;43.70;20.98;;;;;;;;;;5068226;28;20306;-66
2023/01/25 12:37:12;;;;;;;41.20;19.35;;;;;;;;;;5063061;28;20068;-65
2023/01/25 12:39:42;;;;;;;43.17;20.77;;;;;;;;;;5062446;28;20060;-65
2023/01/25 12:42:11;;;;;;;43.25;19.17;;;;;;;;;;5059871;28;20059;-65
2023/01/25 12:44:43;;;;;;;47.40;20.27;;;;;;;;;;5047183;28;20036;-66
2023/01/25 12:47:09;;;;;;;44.75;20.10;;;;;;;;;;5060745;28;20045;-66
2023/01/25 12:49:54;;;;;;;47.58;20.42;;;;;;;;;;5058034;28;20123;-65
2023/01/25 12:52:23;;;;;;;47.70;21.35;;;;;;;;;;5063129;28;20056;-66
2023/01/25 12:54:49;;;;;;;44.70;20.60;;;;;;;;;;5062591;28;20040;-66
2023/01/25 12:57:24;;;;;;;40.17;18.60;;;;;;;;;;5059464;28;20036;-65
2023/01/25 12:59:50;;;;;;;50.00;20.88;;;;;;;;;;5065386;28;20040;-65
2023/01/25 13:02:19;;;;;;;46.05;21.05;;;;;;;;;;5062190;28;20815;-64
2023/01/25 13:04:55;;;;;;;45.25;20.08;;;;;;;;;;5064939;28;20086;-65
2023/01/25 13:07:29;;;;;;;50.45;22.00;;;;;;;;;;5063822;28;20043;-65
2023/01/25 13:09:55;;;;;;;51.58;22.48;;;;;;;;;;5067925;28;20123;-64
2023/01/25 13:12:23;;;;;;;49.40;21.63;;;;;;;;;;5061591;28;20466;-65
2023/01/25 13:14:49;;;;;;;49.95;22.27;;;;;;;;;;5043605;28;22109;-65
2023/01/25 13:17:22;;;;;;;52.13;22.50;;;;;;;;;;5055677;28;20032;-65
2023/01/25 13:19:49;;;;;;;50.13;22.42;;;;;;;;;;5065146;28;20131;-64
2023/01/25 13:22:35;;;;;;;49.60;22.80;;;;;;;;;;5061215;28;20052;-65
2023/01/25 13:25:01;;;;;;;48.20;20.92;;;;;;;;;;5057758;28;20032;-65
2023/01/25 13:27:28;;;;;;;52.60;22.25;;;;;;;;;;5047527;28;20052;-64
2023/01/25 13:29:58;;;;;;;50.13;20.15;;;;;;;;;;5061424;28;20504;-65
2023/01/25 13:32:24;;;;;;;53.25;23.10;;;;;;;;;;5042096;28;20051;-65
2023/01/25 13:34:50;;;;;;;52.15;22.92;;;;;;;;;;5056265;28;20048;-65
2023/01/25 13:37:24;;;;;;;49.70;21.55;;;;;;;;;;5051543;28;20040;-65
2023/01/25 13:39:54;;;;;;;51.75;21.63;;;;;;;;;;5059424;28;20391;-64
2023/01/25 13:42:24;;;;;;;52.47;21.67;;;;;;;;;;5057122;28;20395;-65
2023/01/25 13:44:52;;;;;;;52.85;21.55;;;;;;;;;;5053289;28;20036;-65
2023/01/25 13:47:30;;;;;;;52.75;23.02;;;;;;;;;;5065581;28;20037;-65
2023/01/25 13:50:00;;;;;;;49.65;20.73;;;;;;;;;;5063097;28;20106;-66
2023/01/25 13:52:26;;;;;;;51.55;22.48;;;;;;;;;;5062818;28;20045;-65
2023/01/25 13:54:56;;;;;;;46.30;19.55;;;;;;;;;;5064756;28;20033;-65
2023/01/25 13:57:27;;;;;;;47.78;20.30;;;;;;;;;;5059710;28;20029;-64
2023/01/25 13:59:53;;;;;;;;;;;;;;;;;;5048243;28;20550;-64
2023/01/25 14:02:21;;;;;;;48.72;20.67;;;;;;;;;;5048447;28;19916;-64
2023/01/25 14:04:47;;;;;;;48.20;20.10;;;;;;;;;;5032267;28;20064;-64
2023/01/25 14:07:22;;;;;;;47.03;20.23;;;;;;;;;;5051067;28;20047;-64
2023/01/25 14:09:48;;;;;;;47.53;20.60;;;;;;;;;;5062753;28;20477;-65
2023/01/25 14:12:24;;;;;;;50.95;20.10;;;;;;;;;;5030896;28;1092829;-64
2023/01/25 14:14:51;;;;;;;50.10;21.35;;;;;;;;;;5069178;28;20052;-64
2023/01/25 14:17:18;;;;;;;51.38;21.80;;;;;;;;;;5059438;28;20040;-66
2023/01/25 14:19:48;;;;;;;46.97;21.85;;;;;;;;;;5067887;28;20039;-65
2023/01/25 14:22:30;;;;;;;50.92;22.40;;;;;;;;;;5067837;28;20514;-64
2023/01/25 14:25:01;;;;;;;47.90;20.85;;;;;;;;;;5037762;28;20488;-65